Time;durP1;ratioP1;P1;durP2;ratioP2;P2;SDS_P1;SDS_P2;PMS_P1;PMS_P2;Temp;Humidity;BMP_temperature;BMP_pressure;BME280_temperature;BME280_humidity;BME280_pressure;Samples;Min_cycle;Max_cycle;Signal;HPM_P1;HPM_P2
2022/05/23 00:14:54;;;;;;;11.67;5.67;;;;;;;8.92;92.13;100267.64;713712;1174;114834;-77
2022/05/23 00:29:56;;;;;;;6.25;3.95;;;;;;;8.59;92.31;100269.41;713665;1174;114868;-78
2022/05/23 00:44:58;;;;;;;9.90;4.87;;;;;;;8.45;90.89;100270.48;713262;1174;113850;-78
2022/05/23 01:00:06;;;;;;;15.20;7.15;;;;;;;8.13;91.56;100264.23;713134;1174;114943;-78
2022/05/23 01:15:24;;;;;;;17.10;6.50;;;;;;;7.94;92.39;100263.98;712978;1174;114241;-78
2022/05/23 01:30:27;;;;;;;15.40;6.00;;;;;;;7.73;93.11;100262.07;713435;1174;114128;-77
2022/05/23 01:45:36;;;;;;;12.03;6.07;;;;;;;7.64;91.74;100258.41;713174;1174;114382;-77
2022/05/23 02:15:59;;;;;;;10.40;5.75;;;;;;;7.26;91.63;100269.95;713020;1174;115127;-78
2022/05/23 02:31:02;;;;;;;9.93;5.53;;;;;;;7.11;91.91;100269.31;712920;1173;114791;-79
2022/05/23 02:46:04;;;;;;;14.93;7.35;;;;;;;6.98;92.21;100264.16;712974;1174;113785;-79
2022/05/23 03:17:08;;;;;;;11.68;5.43;;;;;;;7.02;91.68;100287.40;713271;1179;115278;-79
2022/05/23 03:32:10;;;;;;;109.80;22.90;;;;;;;7.23;92.01;100282.38;711459;1180;115034;-79
2022/05/23 03:47:12;;;;;;;75.63;22.10;;;;;;;7.79;93.41;100266.02;711298;1179;115717;-79
2022/05/23 04:02:15;;;;;;;32.30;11.70;;;;;;;8.31;95.76;100279.41;711534;1180;114287;-78
2022/05/23 04:17:17;;;;;;;21.40;8.60;;;;;;;8.58;97.59;100279.05;710107;1180;115410;-79
2022/05/23 05:03:02;;;;;;;13.55;5.95;;;;;;;9.60;98.49;100254.20;711323;1180;114615;-76
2022/05/23 05:18:05;;;;;;;15.85;7.75;;;;;;;10.32;96.99;100261.11;710439;1178;114750;-76
2022/05/23 05:33:13;;;;;;;21.35;11.10;;;;;;;10.73;96.54;100268.95;710901;1179;114259;-77
2022/05/23 05:48:16;;;;;;;;;;;;;;;11.44;97.03;100270.45;711625;1178;114992;-77
2022/05/23 06:03:20;;;;;;;8.75;4.25;;;;;;;12.01;94.00;100269.61;711708;1180;100329;-75
2022/05/23 06:18:23;;;;;;;8.60;4.90;;;;;;;12.74;92.43;100284.56;711617;1179;114193;-72
2022/05/23 06:33:26;;;;;;;6.47;4.40;;;;;;;13.37;90.75;100290.74;711608;1180;115606;-79
2022/05/23 06:48:30;;;;;;;5.05;3.35;;;;;;;13.76;87.14;100302.69;710832;1180;114657;-80
2022/05/23 07:03:32;;;;;;;8.10;3.77;;;;;;;14.38;84.17;100286.64;711758;1180;114148;-80
2022/05/23 07:18:35;;;;;;;4.83;3.27;;;;;;;15.39;82.11;100295.41;712666;1180;114129;-75
2022/05/23 07:33:39;;;;;;;4.87;3.37;;;;;;;16.46;79.75;100286.35;711619;1179;115011;-75
2022/05/23 07:48:45;;;;;;;7.65;3.85;;;;;;;17.72;77.00;100292.16;711618;1180;115364;-74
2022/05/23 08:03:48;;;;;;;3.25;2.35;;;;;;;18.71;73.44;100275.02;711831;1180;114841;-72
2022/05/23 08:18:50;;;;;;;5.27;2.90;;;;;;;19.71;71.61;100272.38;712007;1179;115587;-73
2022/05/23 08:33:53;;;;;;;3.63;2.40;;;;;;;20.38;68.67;100266.59;712262;1179;115351;-74
2022/05/23 08:49:26;;;;;;;4.00;2.50;;;;;;;20.45;65.08;100252.27;710164;1180;114825;-74
2022/05/23 09:04:47;;;;;;;2.80;2.43;;;;;;;19.28;65.26;100251.22;711662;1180;114813;-73
2022/05/23 09:20:08;;;;;;;2.87;2.10;;;;;;;20.97;63.72;100243.76;711905;1179;115579;-74
2022/05/23 09:35:24;;;;;;;4.13;2.20;;;;;;;21.63;61.51;100231.40;711721;1178;115881;-74
2022/05/23 09:51:32;;;;;;;3.35;2.10;;;;;;;21.11;61.06;100226.73;711748;1179;114050;-73
2022/05/23 10:06:53;;;;;;;2.50;2.20;;;;;;;20.12;59.88;100214.86;711687;1180;114329;-75
2022/05/23 10:22:18;;;;;;;5.07;2.10;;;;;;;20.65;60.59;100195.50;711570;1179;114298;-74
2022/05/23 10:37:28;;;;;;;2.50;1.80;;;;;;;22.24;59.24;100191.91;709618;1180;115001;-74
2022/05/23 10:52:53;;;;;;;3.70;1.90;;;;;;;21.62;58.96;100176.38;712519;1179;116028;-74
2022/05/23 11:08:51;;;;;;;2.90;1.93;;;;;;;22.62;56.45;100156.33;711453;1180;115544;-75
2022/05/23 11:24:18;;;;;;;2.13;1.83;;;;;;;21.56;56.83;100158.52;710664;1178;115488;-73
2022/05/23 11:39:44;;;;;;;4.03;1.77;;;;;;;21.69;56.70;100137.12;711458;1178;114265;-74
2022/05/23 11:54:47;;;;;;;7.20;5.17;;;;;;;22.44;57.21;100122.33;711516;1180;115676;-76
2022/05/23 12:09:49;;;;;;;3.50;2.00;;;;;;;21.99;56.57;100130.42;711010;1178;115185;-73
2022/05/23 12:25:07;;;;;;;5.87;2.07;;;;;;;22.66;56.28;100113.91;712240;1179;114897;-83
2022/05/23 12:40:24;;;;;;;2.70;2.00;;;;;;;23.23;54.79;100093.20;717333;1180;116012;-85
2022/05/23 12:56:07;;;;;;;6.90;4.40;;;;;;;23.19;54.24;100083.19;714900;1178;115023;-85
2022/05/23 13:11:16;;;;;;;16.33;10.40;;;;;;;22.81;54.87;100076.16;715436;1178;115005;-85
2022/05/23 13:26:21;;;;;;;3.68;1.60;;;;;;;23.68;54.87;100057.23;713995;1180;116329;-85
2022/05/23 13:41:44;;;;;;;4.25;2.95;;;;;;;22.70;53.93;100046.44;713950;1178;114427;-83
2022/05/23 13:56:54;;;;;;;1.60;1.23;;;;;;;23.08;53.50;100029.36;712072;1180;114299;-77
2022/05/23 14:12:04;;;;;;;2.40;1.83;;;;;;;24.38;52.04;100023.61;710866;1180;115931;-79
2022/05/23 14:27:20;;;;;;;4.95;1.60;;;;;;;25.25;51.31;100031.91;712531;1179;114078;-78
2022/05/23 14:42:27;;;;;;;3.63;1.25;;;;;;;25.56;50.01;100016.38;711725;1179;114793;-78
2022/05/23 15:12:55;;;;;;;5.57;2.27;;;;;;;23.85;50.71;99995.00;711297;1179;114892;-75
2022/05/23 15:27:58;;;;;;;7.30;3.60;;;;;;;22.86;51.90;99983.53;711811;1179;114107;-71
2022/05/23 15:43:01;;;;;;;1.50;1.40;;;;;;;23.24;52.10;99973.61;711783;1180;114382;-78
2022/05/23 15:58:04;;;;;;;3.17;2.03;;;;;;;23.00;50.55;99969.99;711823;1179;114336;-78
2022/05/23 16:13:14;;;;;;;3.35;2.00;;;;;;;23.08;50.32;99948.28;711497;1180;115444;-75
2022/05/23 16:28:17;;;;;;;4.30;2.10;;;;;;;21.82;51.88;99951.23;709961;1180;115535;-79
2022/05/23 16:43:20;;;;;;;6.87;5.20;;;;;;;21.91;54.07;99952.59;711716;1180;115015;-79
2022/05/23 16:58:23;;;;;;;7.10;4.30;;;;;;;22.37;52.49;99935.34;710092;1179;113941;-76
2022/05/23 17:13:26;;;;;;;6.40;5.10;;;;;;;21.83;52.75;99920.80;710840;1180;114790;-74
2022/05/23 17:28:28;;;;;;;8.70;6.85;;;;;;;21.27;53.21;99909.89;711781;1180;113999;-80
2022/05/23 17:43:31;;;;;;;32.35;19.85;;;;;;;20.93;54.16;99915.42;710408;1180;115295;-81
2022/05/23 17:58:34;;;;;;;16.87;10.43;;;;;;;20.52;55.28;99902.42;711823;1178;115137;-86
2022/05/23 18:28:58;;;;;;;18.50;10.97;;;;;;;19.42;57.10;99912.52;711759;1180;115173;-73
2022/05/23 18:44:01;;;;;;;83.70;34.60;;;;;;;18.66;59.44;99894.91;711556;1180;115728;-73
2022/05/23 18:59:05;;;;;;;17.73;10.80;;;;;;;17.70;60.07;99903.45;711940;1179;115663;-73
2022/05/23 19:14:14;;;;;;;35.33;14.57;;;;;;;17.03;62.34;99889.55;711988;1179;114990;-71
2022/05/23 19:29:32;;;;;;;13.15;6.30;;;;;;;16.63;63.57;99895.17;711686;1179;115851;-72
2022/05/23 19:44:35;;;;;;;9.83;6.68;;;;;;;15.87;64.56;99921.75;712109;1180;114389;-71
2022/05/23 19:59:39;;;;;;;10.00;6.33;;;;;;;15.55;66.30;99918.34;711671;1178;114181;-76
2022/05/23 20:30:06;;;;;;;8.70;6.53;;;;;;;14.76;68.97;99906.08;711926;1178;114688;-77
2022/05/23 20:45:10;;;;;;;13.30;7.85;;;;;;;14.58;68.93;99906.27;711764;1180;114814;-76
2022/05/23 21:00:14;;;;;;;11.03;6.03;;;;;;;14.45;70.74;99893.61;711547;1179;114603;-76
2022/05/23 21:15:20;;;;;;;6.13;4.37;;;;;;;14.44;71.21;99884.07;711999;1179;114112;-76
2022/05/23 21:30:29;;;;;;;7.90;4.15;;;;;;;14.26;71.24;99886.92;712562;1180;115216;-76
2022/05/23 22:16:17;;;;;;;15.60;5.10;;;;;;;13.92;72.86;99887.96;711931;1180;114485;-76
2022/05/23 22:31:19;;;;;;;9.58;5.30;;;;;;;13.57;73.45;99885.52;711676;1180;114454;-77
2022/05/23 22:46:21;;;;;;;9.77;4.33;;;;;;;13.36;74.10;99882.52;710477;1180;114490;-77
2022/05/23 23:01:24;;;;;;;7.23;4.40;;;;;;;13.08;75.64;99893.34;711637;1180;114697;-77
2022/05/23 23:16:26;;;;;;;8.30;4.70;;;;;;;13.07;76.25;99889.05;711267;1180;115330;-77
2022/05/23 23:31:29;;;;;;;7.45;4.75;;;;;;;12.99;76.14;99880.13;710871;1180;115152;-76
2022/05/23 23:46:31;;;;;;;8.40;4.40;;;;;;;12.80;77.21;99869.86;711317;1180;114021;-76
